createdAt,value
2022-09-04T00:02:45.015Z,9.61
2022-09-04T00:05:53.239Z,9.52
2022-09-04T00:08:55.682Z,9.42
2022-09-04T00:11:22.562Z,9.33
2022-09-04T00:14:07.095Z,9.24
2022-09-04T00:16:51.220Z,9.14
2022-09-04T00:19:36.210Z,8.99
2022-09-04T00:22:21.716Z,8.88
2022-09-04T00:25:01.374Z,8.78
2022-09-04T00:27:36.106Z,8.67
2022-09-04T00:30:11.507Z,8.56
2022-09-04T00:32:54.928Z,8.44
2022-09-04T00:35:32.454Z,8.31
2022-09-04T00:38:13.490Z,8.18
2022-09-04T00:40:50.047Z,8.06
2022-09-04T00:43:49.491Z,7.95
2022-09-04T00:46:41.415Z,7.80
2022-09-04T00:49:20.294Z,7.71
2022-09-04T00:52:05.591Z,7.59
2022-09-04T00:54:47.783Z,7.46
2022-09-04T00:57:45.464Z,7.38
2022-09-04T01:00:19.630Z,7.32
2022-09-04T01:03:07.470Z,7.24
2022-09-04T01:06:04.013Z,7.17
2022-09-04T01:08:40.831Z,7.10
2022-09-04T01:11:27.537Z,7.03
2022-09-04T01:14:13.420Z,6.98
2022-09-04T01:16:48.485Z,6.93
2022-09-04T01:19:56.147Z,6.90
2022-09-04T01:22:41.447Z,6.82
2022-09-04T01:25:30.794Z,6.75
2022-09-04T01:28:22.331Z,6.68
2022-09-04T01:31:26.619Z,6.67
2022-09-04T01:34:17.954Z,6.57
2022-09-04T01:37:05.868Z,6.49
2022-09-04T01:39:35.856Z,6.44
2022-09-04T01:42:12.959Z,6.37
2022-09-04T01:44:39.855Z,6.32
2022-09-04T01:47:28.832Z,6.26
2022-09-04T01:50:02.043Z,6.20
2022-09-04T01:53:07.164Z,6.17
2022-09-04T01:56:04.396Z,6.12
2022-09-04T01:58:40.817Z,6.05
2022-09-04T02:01:19.133Z,5.99
2022-09-04T02:04:08.181Z,5.93
2022-09-04T02:06:44.144Z,5.89
2022-09-04T02:09:16.592Z,5.83
2022-09-04T02:11:56.827Z,5.81
2022-09-04T02:14:27.507Z,5.78
2022-09-04T02:17:10.681Z,5.71
2022-09-04T02:20:01.497Z,5.66
2022-09-04T02:22:31.132Z,5.59
2022-09-04T02:25:11.395Z,5.54
2022-09-04T02:28:03.845Z,5.54
2022-09-04T02:30:41.157Z,5.48
2022-09-04T02:33:18.869Z,5.46
2022-09-04T02:36:44.580Z,5.44
2022-09-04T02:39:42.181Z,5.31
2022-09-04T02:42:18.150Z,5.19
2022-09-04T02:44:53.628Z,5.15
2022-09-04T02:47:38.656Z,5.10
2022-09-04T02:50:11.479Z,5.03
2022-09-04T02:52:56.895Z,5.00
2022-09-04T02:55:48.511Z,4.93
2022-09-04T02:58:27.274Z,4.91
2022-09-04T03:01:03.065Z,4.88
2022-09-04T03:03:40.802Z,4.79
2022-09-04T03:06:13.554Z,4.70
2022-09-04T03:08:47.093Z,4.66
2022-09-04T03:11:17.959Z,4.53
2022-09-04T03:13:59.391Z,4.43
2022-09-04T03:16:45.021Z,4.37
2022-09-04T03:19:40.367Z,4.32
2022-09-04T03:22:26.444Z,4.28
2022-09-04T03:25:24.019Z,4.25
2022-09-04T03:27:50.856Z,4.26
2022-09-04T03:30:18.564Z,4.32
2022-09-04T03:32:57.171Z,4.39
2022-09-04T03:35:42.120Z,4.59
2022-09-04T03:38:16.602Z,4.81
2022-09-04T03:41:13.161Z,5.16
2022-09-04T03:43:44.525Z,5.49
2022-09-04T03:46:17.316Z,5.90
2022-09-04T03:48:47.156Z,6.34
2022-09-04T03:51:32.464Z,6.71
2022-09-04T03:54:26.027Z,7.28
2022-09-04T03:57:05.035Z,7.95
2022-09-04T03:59:56.594Z,8.45
2022-09-04T04:02:34.172Z,9.03
2022-09-04T04:05:36.956Z,9.65
2022-09-04T04:08:22.597Z,10.24
2022-09-04T04:11:35.260Z,10.98
2022-09-04T04:14:38.329Z,11.76
2022-09-04T04:17:12.751Z,12.35
2022-09-04T04:20:13.253Z,13.04
2022-09-04T04:22:39.971Z,13.58
2022-09-04T04:25:34.399Z,14.09
2022-09-04T04:28:17.151Z,14.76
2022-09-04T04:30:54.643Z,15.29
2022-09-04T04:33:24.441Z,15.91
2022-09-04T04:35:57.415Z,16.45
2022-09-04T04:38:34.534Z,17.00
2022-09-04T04:41:30.825Z,17.58
2022-09-04T04:44:03.700Z,18.29
2022-09-04T04:46:56.194Z,18.88
2022-09-04T04:49:48.608Z,19.53
2022-09-04T04:52:29.846Z,20.04
2022-09-04T04:55:18.003Z,20.60
2022-09-04T04:57:49.414Z,21.16
2022-09-04T05:00:40.234Z,21.69
2022-09-04T05:03:21.644Z,22.22
2022-09-04T05:06:01.057Z,22.77
2022-09-04T05:08:39.800Z,23.24
2022-09-04T05:11:16.482Z,23.56
2022-09-04T05:13:59.404Z,23.97
2022-09-04T05:16:35.283Z,24.30
2022-09-04T05:59:28.283Z,22.04
2022-09-04T06:02:26.861Z,23.07
2022-09-04T06:05:19.148Z,23.93
2022-09-04T06:08:07.055Z,24.82
2022-09-04T06:11:18.508Z,25.57
2022-09-04T06:13:59.465Z,26.29
2022-09-04T06:17:01.702Z,27.03
2022-09-04T06:19:53.272Z,27.71
2022-09-04T06:22:39.763Z,28.20
2022-09-04T06:25:13.780Z,28.60
2022-09-04T06:27:52.343Z,28.81
2022-09-04T06:30:19.482Z,29.04
2022-09-04T06:33:17.353Z,29.45
2022-09-04T06:36:12.334Z,29.68
2022-09-04T06:38:57.414Z,29.68
2022-09-04T06:41:39.202Z,29.83
2022-09-04T06:44:24.544Z,29.82
2022-09-04T06:47:12.848Z,29.60
2022-09-04T06:50:11.681Z,29.11
2022-09-04T06:52:57.671Z,29.20
2022-09-04T06:55:50.985Z,28.13
2022-09-04T06:58:46.187Z,27.73
2022-09-04T07:01:50.506Z,27.46
2022-09-04T07:04:35.731Z,27.49
2022-09-04T07:07:26.870Z,26.48
2022-09-04T07:10:01.495Z,26.46
2022-09-04T07:12:42.830Z,27.33
2022-09-04T07:15:31.564Z,27.71
2022-09-04T07:18:09.631Z,27.77
2022-09-04T07:20:49.249Z,28.06
2022-09-04T07:23:27.632Z,27.83
2022-09-04T07:26:05.275Z,27.59
2022-09-04T07:28:52.069Z,27.37
2022-09-04T07:31:22.337Z,27.74
2022-09-04T07:34:07.830Z,28.80
2022-09-04T07:37:00.163Z,29.13
2022-09-04T07:39:50.797Z,29.42
2022-09-04T07:42:26.580Z,29.37
2022-09-04T07:45:06.026Z,27.91
2022-09-04T07:47:57.587Z,27.65
2022-09-04T07:51:16.833Z,26.94
2022-09-04T07:53:49.545Z,26.62
2022-09-04T07:56:28.636Z,26.58
2022-09-04T07:59:21.661Z,26.48
2022-09-04T08:02:06.681Z,26.76
2022-09-04T08:04:51.739Z,26.73
2022-09-04T08:07:42.009Z,26.94
2022-09-04T08:10:33.866Z,27.86
2022-09-04T08:13:14.139Z,29.52
2022-09-04T08:15:51.471Z,31.14
2022-09-04T08:18:33.671Z,31.70
2022-09-04T08:21:12.094Z,32.71
2022-09-04T08:23:59.407Z,32.56
2022-09-04T08:26:51.871Z,30.90
2022-09-04T08:29:52.719Z,30.95
2022-09-04T08:32:28.555Z,29.54
2022-09-04T08:35:23.284Z,28.03
2022-09-04T08:38:08.587Z,27.70
2022-09-04T08:40:44.383Z,27.58
2022-09-04T08:43:48.597Z,27.38
2022-09-04T08:47:12.829Z,27.04
2022-09-04T08:50:04.295Z,26.74
2022-09-04T08:53:12.369Z,25.51
2022-09-04T08:56:22.662Z,25.20
2022-09-04T08:59:27.299Z,24.72
2022-09-04T09:02:09.074Z,26.13
2022-09-04T09:05:00.812Z,26.60
2022-09-04T09:07:33.767Z,26.89
2022-09-04T09:10:34.626Z,26.90
2022-09-04T09:13:46.127Z,27.36
2022-09-04T09:16:36.494Z,28.16
2022-09-04T09:19:25.929Z,27.37
2022-09-04T09:22:33.860Z,27.75
2022-09-04T09:25:11.974Z,27.20
2022-09-04T09:27:38.824Z,27.49
2022-09-04T09:30:16.668Z,27.65
2022-09-04T09:33:08.428Z,27.26
2022-09-04T09:35:55.891Z,28.40
2022-09-04T09:38:36.024Z,29.64
2022-09-04T09:41:37.638Z,30.02
2022-09-04T09:44:49.496Z,28.95
2022-09-04T09:47:40.853Z,29.48
2022-09-04T09:50:16.788Z,29.96
2022-09-04T09:52:52.770Z,29.82
2022-09-04T09:55:31.847Z,29.98
2022-09-04T09:58:13.788Z,30.21
2022-09-04T10:01:09.449Z,30.12
2022-09-04T10:03:39.207Z,30.15
2022-09-04T10:06:21.882Z,28.86
2022-09-04T10:08:51.405Z,28.18
2022-09-04T10:11:30.073Z,27.86
2022-09-04T10:14:02.508Z,26.95
2022-09-04T10:17:03.550Z,27.10
2022-09-04T10:20:08.740Z,26.51
2022-09-04T10:22:57.317Z,26.34
2022-09-04T10:25:31.158Z,27.54
2022-09-04T10:28:19.750Z,29.35
2022-09-04T10:31:05.171Z,29.60
2022-09-04T10:34:29.746Z,30.49
2022-09-04T10:37:15.186Z,30.63
2022-09-04T10:40:22.376Z,31.81
2022-09-04T10:43:26.627Z,30.03
2022-09-04T10:45:56.184Z,27.88
2022-09-04T10:48:54.269Z,27.05
2022-09-04T10:51:39.541Z,27.68
2022-09-04T10:54:30.737Z,27.00
2022-09-04T10:57:18.536Z,25.25
2022-09-04T11:00:21.996Z,25.29
2022-09-04T11:03:27.960Z,24.83
2022-09-04T11:06:15.733Z,24.19
2022-09-04T11:09:13.981Z,24.35
2022-09-04T11:11:46.752Z,23.84
2022-09-04T11:14:25.508Z,23.61
2022-09-04T11:17:37.734Z,23.64
2022-09-04T11:20:26.099Z,23.78
2022-09-04T11:23:11.348Z,24.20
2022-09-04T11:26:11.209Z,24.04
2022-09-04T11:29:12.811Z,23.88
2022-09-04T11:31:58.451Z,24.32
2022-09-04T11:35:02.453Z,24.88
2022-09-04T11:37:57.770Z,24.60
2022-09-04T11:40:43.484Z,24.13
2022-09-04T11:43:32.199Z,23.92
2022-09-04T11:46:30.262Z,23.51
2022-09-04T11:49:15.668Z,23.28
2022-09-04T11:51:45.327Z,23.99
2022-09-04T11:54:33.538Z,24.40
2022-09-04T11:57:04.815Z,25.32
2022-09-04T12:00:10.980Z,26.69
2022-09-04T12:03:05.571Z,28.32
2022-09-04T12:05:47.163Z,29.53
2022-09-04T12:08:32.679Z,30.67
2022-09-04T12:11:21.134Z,31.53
2022-09-04T12:14:02.054Z,32.88
2022-09-04T12:16:47.633Z,33.78
2022-09-04T12:19:50.427Z,33.61
2022-09-04T12:22:36.337Z,32.75
2022-09-04T12:25:26.169Z,30.49
2022-09-04T12:28:08.877Z,29.95
2022-09-04T12:30:54.408Z,28.72
2022-09-04T12:33:36.515Z,28.36
2022-09-04T12:36:15.468Z,27.81
2022-09-04T12:39:04.108Z,28.18
2022-09-04T12:41:46.852Z,28.09
2022-09-04T12:44:42.298Z,27.60
2022-09-04T12:47:15.609Z,27.03
2022-09-04T12:50:37.662Z,26.76
2022-09-04T12:53:32.163Z,26.99
2022-09-04T12:56:12.610Z,27.50
2022-09-04T12:59:11.485Z,28.07
2022-09-04T13:02:09.831Z,28.71
2022-09-04T13:04:49.541Z,29.54
2022-09-04T13:07:54.534Z,30.07
2022-09-04T13:11:08.896Z,31.18
2022-09-04T13:13:48.059Z,31.94
2022-09-04T13:16:41.227Z,30.80
2022-09-04T13:19:49.578Z,30.37
2022-09-04T13:22:39.591Z,29.84
2022-09-04T13:25:49.637Z,28.44
2022-09-04T13:28:45.369Z,27.06
2022-09-04T13:31:43.435Z,26.35
2022-09-04T13:34:13.515Z,25.35
2022-09-04T13:36:49.728Z,24.48
2022-09-04T13:39:31.810Z,24.21
2022-09-04T13:42:08.870Z,23.80
2022-09-04T13:44:40.944Z,23.82
2022-09-04T13:47:16.438Z,23.30
2022-09-04T13:49:53.415Z,23.09
2022-09-04T13:52:34.629Z,22.60
2022-09-04T13:55:06.066Z,22.63
2022-09-04T13:57:40.191Z,22.73
2022-09-04T14:00:08.134Z,22.67
2022-09-04T14:02:36.796Z,22.86
2022-09-04T14:05:25.710Z,23.32
2022-09-04T14:08:04.213Z,23.52
2022-09-04T14:10:55.846Z,23.69
2022-09-04T14:13:33.165Z,23.86
2022-09-04T14:16:11.645Z,23.73
2022-09-04T14:19:13.450Z,23.51
2022-09-04T14:22:02.519Z,22.96
2022-09-04T14:24:56.448Z,22.67
2022-09-04T14:27:48.387Z,22.27
2022-09-04T14:30:16.940Z,22.07
2022-09-04T14:33:07.256Z,22.12
2022-09-04T14:35:46.723Z,21.94
2022-09-04T14:38:35.250Z,21.88
2022-09-04T14:41:35.853Z,22.03
2022-09-04T14:44:17.418Z,22.23
2022-09-04T14:47:09.802Z,22.42
2022-09-04T14:49:48.261Z,22.60
2022-09-04T14:52:28.143Z,22.75
2022-09-04T14:54:58.167Z,22.80
2022-09-04T14:57:43.092Z,22.54
2022-09-04T15:00:17.417Z,22.33
2022-09-04T15:03:13.337Z,21.87
2022-09-04T15:05:56.711Z,21.74
2022-09-04T15:08:39.876Z,21.58
2022-09-04T15:11:13.260Z,21.38
2022-09-04T15:13:53.319Z,20.94
2022-09-04T15:16:23.392Z,20.82
2022-09-04T15:19:29.017Z,20.55
2022-09-04T15:22:18.883Z,20.26
2022-09-04T15:25:09.007Z,20.06
2022-09-04T15:27:46.115Z,19.94
2022-09-04T15:30:33.611Z,19.80
2022-09-04T15:33:08.233Z,19.67
2022-09-04T15:35:36.010Z,19.51
2022-09-04T15:38:21.160Z,19.38
2022-09-04T15:41:16.780Z,19.22
2022-09-04T15:43:51.546Z,18.99
2022-09-04T15:46:33.181Z,18.87
2022-09-04T15:49:41.968Z,18.70
2022-09-04T15:52:12.691Z,18.49
2022-09-04T15:54:42.230Z,18.28
2022-09-04T15:57:20.120Z,18.07
2022-09-04T15:59:59.077Z,17.89
2022-09-04T16:03:17.446Z,17.68
2022-09-04T16:05:52.509Z,17.44
2022-09-04T16:08:26.165Z,17.24
2022-09-04T16:11:20.982Z,17.06
2022-09-04T16:13:50.611Z,16.91
2022-09-04T16:16:25.876Z,16.79
2022-09-04T16:18:52.714Z,16.63
2022-09-04T16:21:40.694Z,16.44
2022-09-04T16:24:30.725Z,16.23
2022-09-04T16:26:58.852Z,16.02
2022-09-04T16:29:36.369Z,15.82
2022-09-04T16:32:09.851Z,15.61
2022-09-04T16:34:45.277Z,15.41
2022-09-04T16:37:19.329Z,15.23
2022-09-04T16:39:59.251Z,15.10
2022-09-04T16:42:45.780Z,14.94
2022-09-04T16:45:30.511Z,14.74
2022-09-04T16:48:15.791Z,14.53
2022-09-04T16:51:40.343Z,14.23
2022-09-04T16:54:17.262Z,13.96
2022-09-04T16:56:53.402Z,13.70
2022-09-04T17:00:22.462Z,13.41
2022-09-04T17:02:52.076Z,13.09
2022-09-04T17:05:28.794Z,12.87
2022-09-04T17:08:07.630Z,12.62
2022-09-04T17:10:59.566Z,12.39
2022-09-04T17:14:08.550Z,12.20
2022-09-04T17:17:31.408Z,12.03
2022-09-04T17:20:23.089Z,11.88
2022-09-04T17:28:59.415Z,11.51
2022-09-04T17:29:10.111Z,11.73
2022-09-04T17:29:58.527Z,11.27
2022-09-04T17:36:41.748Z,11.11
2022-09-04T17:40:39.844Z,10.98
2022-09-04T17:40:48.837Z,10.84
2022-09-04T17:42:08.344Z,10.69
2022-09-04T17:45:06.190Z,10.60
2022-09-04T17:47:41.589Z,10.53
2022-09-04T17:50:14.000Z,10.46
2022-09-04T17:53:01.618Z,10.40
2022-09-04T17:55:38.727Z,10.31
2022-09-04T17:58:21.990Z,10.17
2022-09-04T18:01:14.462Z,10.02
2022-09-04T18:04:22.248Z,9.87
2022-09-04T18:07:50.990Z,9.73
2022-09-04T18:10:12.016Z,9.58
2022-09-04T18:13:36.453Z,9.42
2022-09-04T18:16:18.282Z,9.24
2022-09-04T18:18:54.685Z,9.16
2022-09-04T18:21:37.230Z,9.09
2022-09-04T18:24:19.309Z,8.98
2022-09-04T18:27:02.556Z,8.87
2022-09-04T18:36:15.587Z,8.75
2022-09-04T18:37:22.650Z,8.51
2022-09-04T18:37:25.323Z,8.62
2022-09-04T18:39:11.585Z,8.39
2022-09-04T18:47:17.407Z,8.30
2022-09-04T18:50:22.333Z,8.25
2022-09-04T18:50:33.994Z,8.21
2022-09-04T18:51:20.148Z,8.20
2022-09-04T18:54:10.015Z,8.14
2022-09-04T18:56:45.325Z,8.05
2022-09-04T18:59:24.813Z,8.00
2022-09-04T19:02:11.702Z,7.95
2022-09-04T19:05:00.499Z,7.89
2022-09-04T19:07:35.262Z,7.82
2022-09-04T19:10:17.258Z,7.82
2022-09-04T19:12:56.047Z,7.82
2022-09-04T19:15:55.915Z,7.82
2022-09-04T19:18:43.624Z,7.80
2022-09-04T19:21:14.810Z,7.79
2022-09-04T19:23:41.921Z,7.80
2022-09-04T19:26:38.481Z,7.79
2022-09-04T19:29:11.166Z,7.71
2022-09-04T19:31:44.416Z,7.61
2022-09-04T19:34:28.416Z,7.51
2022-09-04T19:37:50.224Z,7.37
2022-09-04T19:46:05.271Z,7.20
2022-09-04T19:46:07.278Z,7.25
2022-09-04T19:46:28.250Z,7.17
2022-09-04T19:50:54.040Z,7.14
2022-09-04T19:53:30.049Z,7.14
2022-09-04T19:55:24.594Z,7.15
2022-09-04T19:58:11.943Z,7.17
2022-09-04T20:00:54.873Z,7.21
2022-09-04T20:03:43.249Z,7.25
2022-09-04T20:06:32.653Z,7.28
2022-09-04T20:09:02.186Z,7.31
2022-09-04T20:11:40.932Z,7.33
2022-09-04T20:14:19.691Z,7.34
2022-09-04T20:17:01.021Z,7.35
2022-09-04T20:19:51.525Z,7.43
2022-09-04T20:22:37.356Z,7.48
2022-09-04T20:25:04.088Z,7.54
2022-09-04T20:27:36.521Z,7.60
2022-09-04T20:30:12.742Z,7.69
2022-09-04T20:32:53.938Z,7.77
2022-09-04T20:35:44.987Z,7.83
2022-09-04T20:38:33.120Z,7.90
2022-09-04T20:41:20.333Z,7.97
2022-09-04T20:44:03.474Z,8.02
2022-09-04T20:52:43.030Z,8.10
2022-09-04T20:52:58.245Z,8.27
2022-09-04T20:53:05.902Z,8.17
2022-09-04T20:55:46.275Z,8.38
2022-09-04T21:03:11.525Z,8.46
2022-09-04T21:03:20.865Z,8.56
2022-09-04T21:04:42.610Z,8.69
2022-09-04T21:07:37.958Z,8.77
2022-09-04T21:10:24.002Z,8.84
2022-09-04T21:13:14.025Z,8.91
2022-09-04T21:15:47.142Z,8.99
2022-09-04T21:18:22.599Z,9.05
2022-09-04T21:20:59.794Z,9.11
2022-09-04T21:24:03.244Z,9.16
2022-09-04T21:26:36.840Z,9.22
2022-09-04T21:29:23.743Z,9.28
2022-09-04T21:32:21.097Z,9.30
2022-09-04T21:35:13.396Z,9.38
2022-09-04T21:38:08.940Z,9.45
2022-09-04T21:40:52.779Z,9.51
2022-09-04T21:43:47.190Z,9.58
2022-09-04T21:46:58.074Z,9.63
2022-09-04T21:50:15.498Z,9.68
2022-09-04T21:53:01.054Z,9.72
2022-09-04T21:59:15.410Z,9.76
2022-09-04T22:02:35.357Z,9.82
2022-09-04T22:02:36.515Z,9.80
2022-09-04T22:04:58.265Z,9.82
2022-09-04T22:10:49.472Z,9.82
2022-09-04T22:13:37.628Z,9.81
2022-09-04T22:14:15.649Z,9.82
2022-09-04T22:17:06.762Z,9.84
2022-09-04T22:19:55.045Z,9.87
2022-09-04T22:22:49.708Z,9.89
2022-09-04T22:25:45.066Z,9.90
2022-09-04T22:28:42.967Z,9.91
2022-09-04T22:31:29.192Z,9.88
2022-09-04T22:34:40.952Z,9.86
2022-09-04T22:37:35.702Z,9.80
2022-09-04T22:40:26.002Z,9.76
2022-09-04T22:43:15.872Z,9.72
2022-09-04T22:46:17.946Z,9.70
2022-09-04T22:49:12.125Z,9.64
2022-09-04T22:52:17.448Z,9.62
2022-09-04T22:55:36.147Z,9.60
2022-09-04T22:58:21.925Z,9.58
2022-09-04T23:01:25.171Z,9.56
2022-09-04T23:04:10.880Z,9.58
2022-09-04T23:12:42.773Z,9.57
2022-09-04T23:13:43.965Z,9.54
2022-09-04T23:13:57.503Z,9.51
2022-09-04T23:15:36.327Z,9.51
2022-09-04T23:23:00.047Z,9.52
2022-09-04T23:26:38.495Z,9.53
2022-09-04T23:26:44.301Z,9.60
2022-09-04T23:28:21.438Z,9.63
2022-09-04T23:31:11.248Z,9.66
2022-09-04T23:34:36.777Z,9.70
2022-09-04T23:37:24.507Z,9.72
2022-09-04T23:40:25.687Z,9.75
2022-09-04T23:43:21.318Z,9.78
2022-09-04T23:46:23.641Z,9.81
2022-09-04T23:49:28.370Z,9.83
2022-09-04T23:51:55.151Z,9.87
2022-09-04T23:54:30.914Z,9.89
2022-09-04T23:57:16.882Z,9.95
